sensor_id;sensor_type;location;lat;lon;timestamp;pressure;altitude;pressure_sealevel;temperature
64904;BMP280;51401;48.882;12.598;2023-08-12T00:00:04;84826.34;;;17.12
64904;BMP280;51401;48.882;12.598;2023-08-12T00:02:37;84807.13;;;17.05
64904;BMP280;51401;48.882;12.598;2023-08-12T00:05:03;84739.50;;;17.01
64904;BMP280;51401;48.882;12.598;2023-08-12T00:07:29;84682.94;;;16.98
64904;BMP280;51401;48.882;12.598;2023-08-12T00:09:55;84708.16;;;16.89
64904;BMP280;51401;48.882;12.598;2023-08-12T00:12:21;84626.16;;;16.86
64904;BMP280;51401;48.882;12.598;2023-08-12T00:14:46;84582.06;;;16.82
64904;BMP280;51401;48.882;12.598;2023-08-12T00:17:12;84465.03;;;16.76
64904;BMP280;51401;48.882;12.598;2023-08-12T00:19:37;84365.47;;;16.73
64904;BMP280;51401;48.882;12.598;2023-08-12T00:22:02;84237.75;;;16.73
64904;BMP280;51401;48.882;12.598;2023-08-12T00:24:29;84044.94;;;16.84
64904;BMP280;51401;48.882;12.598;2023-08-12T00:26:55;83876.03;;;16.86
64904;BMP280;51401;48.882;12.598;2023-08-12T00:29:20;83779.25;;;16.82
64904;BMP280;51401;48.882;12.598;2023-08-12T00:31:46;83726.63;;;16.79
64904;BMP280;51401;48.882;12.598;2023-08-12T00:34:11;83691.00;;;16.76
64904;BMP280;51401;48.882;12.598;2023-08-12T00:36:36;83612.06;;;16.77
64904;BMP280;51401;48.882;12.598;2023-08-12T00:39:02;83526.06;;;16.77
64904;BMP280;51401;48.882;12.598;2023-08-12T00:41:28;83454.50;;;16.76
64904;BMP280;51401;48.882;12.598;2023-08-12T00:43:54;83414.66;;;16.78
64904;BMP280;51401;48.882;12.598;2023-08-12T00:46:19;83368.50;;;16.76
64904;BMP280;51401;48.882;12.598;2023-08-12T00:48:45;83328.81;;;16.76
64904;BMP280;51401;48.882;12.598;2023-08-12T00:51:10;83284.53;;;16.76
64904;BMP280;51401;48.882;12.598;2023-08-12T00:53:36;83203.47;;;16.80
64904;BMP280;51401;48.882;12.598;2023-08-12T00:56:01;83202.72;;;16.81
64904;BMP280;51401;48.882;12.598;2023-08-12T00:58:27;83195.06;;;16.88
64904;BMP280;51401;48.882;12.598;2023-08-12T01:00:52;83302.06;;;16.86
64904;BMP280;51401;48.882;12.598;2023-08-12T01:03:18;83338.59;;;16.94
64904;BMP280;51401;48.882;12.598;2023-08-12T01:05:44;83480.44;;;16.97
64904;BMP280;51401;48.882;12.598;2023-08-12T01:08:09;83645.63;;;17.02
64904;BMP280;51401;48.882;12.598;2023-08-12T01:10:36;83906.81;;;16.94
64904;BMP280;51401;48.882;12.598;2023-08-12T01:13:14;84038.88;;;16.87
64904;BMP280;51401;48.882;12.598;2023-08-12T01:15:43;84132.56;;;16.79
64904;BMP280;51401;48.882;12.598;2023-08-12T01:18:09;84208.41;;;16.63
64904;BMP280;51401;48.882;12.598;2023-08-12T01:20:36;84177.78;;;16.51
64904;BMP280;51401;48.882;12.598;2023-08-12T01:23:14;84118.63;;;16.37
64904;BMP280;51401;48.882;12.598;2023-08-12T01:25:40;84061.28;;;16.27
64904;BMP280;51401;48.882;12.598;2023-08-12T01:28:06;83971.19;;;16.19
64904;BMP280;51401;48.882;12.598;2023-08-12T01:30:33;83885.75;;;16.12
64904;BMP280;51401;48.882;12.598;2023-08-12T01:33:07;83828.31;;;16.03
64904;BMP280;51401;48.882;12.598;2023-08-12T01:35:37;83734.47;;;15.95
64904;BMP280;51401;48.882;12.598;2023-08-12T01:38:05;83577.09;;;15.94
64904;BMP280;51401;48.882;12.598;2023-08-12T01:40:32;83282.13;;;16.08
64904;BMP280;51401;48.882;12.598;2023-08-12T01:42:59;82944.94;;;16.27
64904;BMP280;51401;48.882;12.598;2023-08-12T01:45:25;82774.69;;;16.41
64904;BMP280;51401;48.882;12.598;2023-08-12T01:47:50;82778.06;;;16.48
64904;BMP280;51401;48.882;12.598;2023-08-12T01:50:16;82867.31;;;16.38
64904;BMP280;51401;48.882;12.598;2023-08-12T01:52:42;82913.25;;;16.33
64904;BMP280;51401;48.882;12.598;2023-08-12T01:55:07;82944.63;;;16.23
64904;BMP280;51401;48.882;12.598;2023-08-12T01:57:33;82889.19;;;16.16
64904;BMP280;51401;48.882;12.598;2023-08-12T01:59:58;82685.41;;;16.26
64904;BMP280;51401;48.882;12.598;2023-08-12T02:02:23;82520.97;;;16.32
64904;BMP280;51401;48.882;12.598;2023-08-12T02:04:49;82440.41;;;16.30
64904;BMP280;51401;48.882;12.598;2023-08-12T02:07:14;82454.72;;;16.22
64904;BMP280;51401;48.882;12.598;2023-08-12T02:09:40;82463.16;;;16.14
64904;BMP280;51401;48.882;12.598;2023-08-12T02:12:05;82483.56;;;16.04
64904;BMP280;51401;48.882;12.598;2023-08-12T02:14:31;82401.88;;;16.01
64904;BMP280;51401;48.882;12.598;2023-08-12T02:16:56;82307.16;;;15.98
64904;BMP280;51401;48.882;12.598;2023-08-12T02:19:25;82123.16;;;16.05
64904;BMP280;51401;48.882;12.598;2023-08-12T02:21:50;82096.63;;;15.96
64904;BMP280;51401;48.882;12.598;2023-08-12T02:24:16;82168.94;;;15.87
64904;BMP280;51401;48.882;12.598;2023-08-12T02:26:41;82136.22;;;15.82
64904;BMP280;51401;48.882;12.598;2023-08-12T02:29:06;82108.13;;;15.76
64904;BMP280;51401;48.882;12.598;2023-08-12T02:31:31;82030.28;;;15.74
64904;BMP280;51401;48.882;12.598;2023-08-12T02:33:57;81843.78;;;15.81
64904;BMP280;51401;48.882;12.598;2023-08-12T02:36:22;81740.03;;;15.85
64904;BMP280;51401;48.882;12.598;2023-08-12T02:38:48;81693.22;;;15.85
64904;BMP280;51401;48.882;12.598;2023-08-12T02:41:13;81628.03;;;15.87
64904;BMP280;51401;48.882;12.598;2023-08-12T02:43:38;81551.03;;;15.90
64904;BMP280;51401;48.882;12.598;2023-08-12T02:46:04;81608.63;;;15.86
64904;BMP280;51401;48.882;12.598;2023-08-12T02:48:29;81657.97;;;15.80
64904;BMP280;51401;48.882;12.598;2023-08-12T02:50:54;81719.13;;;15.72
64904;BMP280;51401;48.882;12.598;2023-08-12T02:53:19;81736.28;;;15.69
64904;BMP280;51401;48.882;12.598;2023-08-12T02:55:45;81788.38;;;15.61
64904;BMP280;51401;48.882;12.598;2023-08-12T02:58:10;81876.25;;;15.52
64904;BMP280;51401;48.882;12.598;2023-08-12T03:00:36;81938.72;;;15.44
64904;BMP280;51401;48.882;12.598;2023-08-12T03:03:01;81925.25;;;15.41
64904;BMP280;51401;48.882;12.598;2023-08-12T03:05:26;81904.22;;;15.37
64904;BMP280;51401;48.882;12.598;2023-08-12T03:07:52;81932.13;;;15.30
64904;BMP280;51401;48.882;12.598;2023-08-12T03:10:17;81899.72;;;15.29
64904;BMP280;51401;48.882;12.598;2023-08-12T03:12:42;81858.16;;;15.29
64904;BMP280;51401;48.882;12.598;2023-08-12T03:15:08;81742.28;;;15.32
64904;BMP280;51401;48.882;12.598;2023-08-12T03:17:34;81610.63;;;15.37
64904;BMP280;51401;48.882;12.598;2023-08-12T03:19:59;81443.78;;;15.43
64904;BMP280;51401;48.882;12.598;2023-08-12T03:22:27;81358.66;;;15.43
64904;BMP280;51401;48.882;12.598;2023-08-12T03:24:53;81258.56;;;15.44
64904;BMP280;51401;48.882;12.598;2023-08-12T03:27:18;81198.78;;;15.44
64904;BMP280;51401;48.882;12.598;2023-08-12T03:29:43;81169.63;;;15.44
64904;BMP280;51401;48.882;12.598;2023-08-12T03:32:09;81171.22;;;15.41
64904;BMP280;51401;48.882;12.598;2023-08-12T03:34:34;81180.59;;;15.38
64904;BMP280;51401;48.882;12.598;2023-08-12T03:36:59;81175.22;;;15.40
64904;BMP280;51401;48.882;12.598;2023-08-12T03:39:25;81215.97;;;15.35
64904;BMP280;51401;48.882;12.598;2023-08-12T03:41:50;81245.94;;;15.34
64904;BMP280;51401;48.882;12.598;2023-08-12T03:44:16;81112.06;;;15.48
64904;BMP280;51401;48.882;12.598;2023-08-12T03:46:41;80995.72;;;15.61
64904;BMP280;51401;48.882;12.598;2023-08-12T03:49:07;81048.69;;;15.57
64904;BMP280;51401;48.882;12.598;2023-08-12T03:51:32;81092.88;;;15.57
64904;BMP280;51401;48.882;12.598;2023-08-12T03:53:58;81163.03;;;15.51
64904;BMP280;51401;48.882;12.598;2023-08-12T03:56:23;81151.81;;;15.53
64904;BMP280;51401;48.882;12.598;2023-08-12T03:58:48;81079.28;;;15.63
64904;BMP280;51401;48.882;12.598;2023-08-12T04:01:14;81202.22;;;15.56
64904;BMP280;51401;48.882;12.598;2023-08-12T04:03:39;81242.38;;;15.57
64904;BMP280;51401;48.882;12.598;2023-08-12T04:06:04;81216.00;;;15.60
64904;BMP280;51401;48.882;12.598;2023-08-12T04:08:29;81285.38;;;15.56
64904;BMP280;51401;48.882;12.598;2023-08-12T04:10:57;81261.75;;;15.51
64904;BMP280;51401;48.882;12.598;2023-08-12T04:13:22;81265.75;;;15.44
64904;BMP280;51401;48.882;12.598;2023-08-12T04:15:49;81309.47;;;15.35
64904;BMP280;51401;48.882;12.598;2023-08-12T04:18:15;81389.97;;;15.29
64904;BMP280;51401;48.882;12.598;2023-08-12T04:20:40;81474.44;;;15.21
64904;BMP280;51401;48.882;12.598;2023-08-12T04:23:05;81420.09;;;15.19
64904;BMP280;51401;48.882;12.598;2023-08-12T04:25:31;81383.50;;;15.15
64904;BMP280;51401;48.882;12.598;2023-08-12T04:27:56;81268.88;;;15.25
64904;BMP280;51401;48.882;12.598;2023-08-12T04:30:21;81321.00;;;15.23
64904;BMP280;51401;48.882;12.598;2023-08-12T04:32:47;81396.34;;;15.23
64904;BMP280;51401;48.882;12.598;2023-08-12T04:35:12;81418.13;;;15.26
64904;BMP280;51401;48.882;12.598;2023-08-12T04:37:37;81302.91;;;15.42
64904;BMP280;51401;48.882;12.598;2023-08-12T04:40:03;81206.00;;;15.57
64904;BMP280;51401;48.882;12.598;2023-08-12T04:42:30;81163.22;;;15.68
64904;BMP280;51401;48.882;12.598;2023-08-12T04:44:55;81224.63;;;15.72
64904;BMP280;51401;48.882;12.598;2023-08-12T04:47:20;81199.81;;;15.86
64904;BMP280;51401;48.882;12.598;2023-08-12T04:49:45;81119.44;;;16.03
64904;BMP280;51401;48.882;12.598;2023-08-12T04:52:11;80997.44;;;16.37
64904;BMP280;51401;48.882;12.598;2023-08-12T04:54:36;80937.81;;;16.95
64904;BMP280;51401;48.882;12.598;2023-08-12T04:57:01;81615.66;;;17.34
64904;BMP280;51401;48.882;12.598;2023-08-12T04:59:27;82403.06;;;17.76
64904;BMP280;51401;48.882;12.598;2023-08-12T05:01:52;83273.16;;;18.21
64904;BMP280;51401;48.882;12.598;2023-08-12T05:04:17;84182.91;;;18.81
64904;BMP280;51401;48.882;12.598;2023-08-12T05:06:43;85538.91;;;19.61
64904;BMP280;51401;48.882;12.598;2023-08-12T05:09:08;87010.63;;;19.72
64904;BMP280;51401;48.882;12.598;2023-08-12T05:11:33;88153.63;;;20.20
64904;BMP280;51401;48.882;12.598;2023-08-12T05:13:58;89048.47;;;20.62
64904;BMP280;51401;48.882;12.598;2023-08-12T05:16:24;89401.44;;;20.80
64904;BMP280;51401;48.882;12.598;2023-08-12T05:18:49;89593.19;;;21.15
64904;BMP280;51401;48.882;12.598;2023-08-12T05:21:15;89711.59;;;21.19
64904;BMP280;51401;48.882;12.598;2023-08-12T05:23:41;89894.25;;;21.12
64904;BMP280;51401;48.882;12.598;2023-08-12T05:26:06;89994.53;;;21.28
64904;BMP280;51401;48.882;12.598;2023-08-12T05:28:31;90071.66;;;21.05
64904;BMP280;51401;48.882;12.598;2023-08-12T05:30:56;90165.72;;;21.36
64904;BMP280;51401;48.882;12.598;2023-08-12T05:33:22;90243.63;;;21.47
64904;BMP280;51401;48.882;12.598;2023-08-12T05:35:48;90303.03;;;21.56
64904;BMP280;51401;48.882;12.598;2023-08-12T05:38:13;90472.66;;;21.49
64904;BMP280;51401;48.882;12.598;2023-08-12T05:40:39;90507.50;;;21.47
64904;BMP280;51401;48.882;12.598;2023-08-12T05:43:04;90479.41;;;21.56
64904;BMP280;51401;48.882;12.598;2023-08-12T05:45:29;90578.63;;;21.28
64904;BMP280;51401;48.882;12.598;2023-08-12T05:47:55;90415.50;;;21.28
64904;BMP280;51401;48.882;12.598;2023-08-12T05:50:21;90392.47;;;21.29
64904;BMP280;51401;48.882;12.598;2023-08-12T05:52:46;90455.44;;;20.77
64904;BMP280;51401;48.882;12.598;2023-08-12T05:55:11;90323.94;;;20.98
64904;BMP280;51401;48.882;12.598;2023-08-12T05:57:36;90386.75;;;20.88
64904;BMP280;51401;48.882;12.598;2023-08-12T06:00:02;90288.53;;;21.03
64904;BMP280;51401;48.882;12.598;2023-08-12T06:02:27;90292.19;;;21.17
64904;BMP280;51401;48.882;12.598;2023-08-12T06:04:53;90494.22;;;21.20
64904;BMP280;51401;48.882;12.598;2023-08-12T06:07:18;90516.56;;;21.19
64904;BMP280;51401;48.882;12.598;2023-08-12T06:09:43;90675.03;;;20.99
64904;BMP280;51401;48.882;12.598;2023-08-12T06:12:09;90422.38;;;21.39
64904;BMP280;51401;48.882;12.598;2023-08-12T06:14:37;90395.41;;;21.90
64904;BMP280;51401;48.882;12.598;2023-08-12T06:17:02;90709.69;;;21.53
64904;BMP280;51401;48.882;12.598;2023-08-12T06:19:27;90640.81;;;21.83
64904;BMP280;51401;48.882;12.598;2023-08-12T06:21:53;90659.06;;;22.00
64904;BMP280;51401;48.882;12.598;2023-08-12T06:24:18;90742.13;;;22.24
64904;BMP280;51401;48.882;12.598;2023-08-12T06:26:43;90820.19;;;22.35
64904;BMP280;51401;48.882;12.598;2023-08-12T06:29:09;90838.00;;;22.13
64904;BMP280;51401;48.882;12.598;2023-08-12T06:31:34;90946.44;;;22.25
64904;BMP280;51401;48.882;12.598;2023-08-12T06:33:59;90974.06;;;22.24
64904;BMP280;51401;48.882;12.598;2023-08-12T06:36:24;90973.94;;;22.20
64904;BMP280;51401;48.882;12.598;2023-08-12T06:38:50;90811.28;;;22.69
64904;BMP280;51401;48.882;12.598;2023-08-12T06:41:15;91017.66;;;22.46
64904;BMP280;51401;48.882;12.598;2023-08-12T06:43:41;90993.94;;;22.90
64904;BMP280;51401;48.882;12.598;2023-08-12T06:46:06;91033.34;;;23.06
64904;BMP280;51401;48.882;12.598;2023-08-12T06:48:31;91047.41;;;22.91
64904;BMP280;51401;48.882;12.598;2023-08-12T06:50:56;91100.66;;;23.28
64904;BMP280;51401;48.882;12.598;2023-08-12T06:53:22;91036.69;;;23.75
64904;BMP280;51401;48.882;12.598;2023-08-12T06:55:47;91271.59;;;23.88
64904;BMP280;51401;48.882;12.598;2023-08-12T06:58:13;91387.56;;;23.98
64904;BMP280;51401;48.882;12.598;2023-08-12T07:00:40;91465.00;;;23.81
64904;BMP280;51401;48.882;12.598;2023-08-12T07:03:05;91569.50;;;23.48
64904;BMP280;51401;48.882;12.598;2023-08-12T07:05:30;91434.53;;;23.80
64904;BMP280;51401;48.882;12.598;2023-08-12T07:07:55;91381.84;;;24.05
64904;BMP280;51401;48.882;12.598;2023-08-12T07:10:21;91151.31;;;24.34
64904;BMP280;51401;48.882;12.598;2023-08-12T07:12:46;91464.63;;;24.50
64904;BMP280;51401;48.882;12.598;2023-08-12T07:15:11;91488.84;;;24.85
64904;BMP280;51401;48.882;12.598;2023-08-12T07:17:37;91673.41;;;25.01
64904;BMP280;51401;48.882;12.598;2023-08-12T07:20:02;91896.53;;;24.65
64904;BMP280;51401;48.882;12.598;2023-08-12T07:22:29;91903.72;;;24.46
64904;BMP280;51401;48.882;12.598;2023-08-12T07:24:54;91721.63;;;24.98
64904;BMP280;51401;48.882;12.598;2023-08-12T07:27:20;92053.91;;;25.12
64904;BMP280;51401;48.882;12.598;2023-08-12T07:29:46;92441.31;;;24.82
64904;BMP280;51401;48.882;12.598;2023-08-12T07:32:12;93114.06;;;25.29
64904;BMP280;51401;48.882;12.598;2023-08-12T07:34:37;93832.19;;;25.05
64904;BMP280;51401;48.882;12.598;2023-08-12T07:37:03;93950.19;;;25.24
64904;BMP280;51401;48.882;12.598;2023-08-12T07:39:28;95165.59;;;25.56
64904;BMP280;51401;48.882;12.598;2023-08-12T07:41:53;97054.13;;;25.53
64904;BMP280;51401;48.882;12.598;2023-08-12T07:44:19;97172.06;;;25.79
64904;BMP280;51401;48.882;12.598;2023-08-12T07:46:45;97245.25;;;25.80
64904;BMP280;51401;48.882;12.598;2023-08-12T07:49:10;97336.56;;;25.72
64904;BMP280;51401;48.882;12.598;2023-08-12T07:51:36;97384.84;;;25.87
64904;BMP280;51401;48.882;12.598;2023-08-12T07:54:01;97419.19;;;25.63
64904;BMP280;51401;48.882;12.598;2023-08-12T07:56:26;97414.81;;;25.71
64904;BMP280;51401;48.882;12.598;2023-08-12T07:58:52;97466.25;;;25.73
64904;BMP280;51401;48.882;12.598;2023-08-12T08:01:17;97499.09;;;26.35
64904;BMP280;51401;48.882;12.598;2023-08-12T08:03:42;97542.13;;;26.28
64904;BMP280;51401;48.882;12.598;2023-08-12T08:06:08;97573.31;;;26.55
64904;BMP280;51401;48.882;12.598;2023-08-12T08:08:33;97579.31;;;26.82
64904;BMP280;51401;48.882;12.598;2023-08-12T08:10:58;97653.56;;;26.75
64904;BMP280;51401;48.882;12.598;2023-08-12T08:13:23;97700.75;;;26.85
64904;BMP280;51401;48.882;12.598;2023-08-12T08:15:49;97715.78;;;26.66
64904;BMP280;51401;48.882;12.598;2023-08-12T08:18:14;97716.00;;;26.58
64904;BMP280;51401;48.882;12.598;2023-08-12T08:20:42;97758.81;;;27.03
64904;BMP280;51401;48.882;12.598;2023-08-12T08:23:07;97780.66;;;27.01
64904;BMP280;51401;48.882;12.598;2023-08-12T08:25:32;97763.66;;;26.66
64904;BMP280;51401;48.882;12.598;2023-08-12T08:27:58;97785.22;;;27.33
64904;BMP280;51401;48.882;12.598;2023-08-12T08:30:23;97831.22;;;27.34
64904;BMP280;51401;48.882;12.598;2023-08-12T08:32:50;97844.50;;;27.50
64904;BMP280;51401;48.882;12.598;2023-08-12T08:35:15;97864.38;;;27.16
64904;BMP280;51401;48.882;12.598;2023-08-12T08:37:41;97850.56;;;26.86
64904;BMP280;51401;48.882;12.598;2023-08-12T08:40:07;97842.56;;;26.80
64904;BMP280;51401;48.882;12.598;2023-08-12T08:42:33;97840.91;;;27.04
64904;BMP280;51401;48.882;12.598;2023-08-12T08:45:01;97869.94;;;27.78
64904;BMP280;51401;48.882;12.598;2023-08-12T08:47:28;97891.94;;;28.00
64904;BMP280;51401;48.882;12.598;2023-08-12T08:49:58;97911.72;;;28.26
64904;BMP280;51401;48.882;12.598;2023-08-12T08:52:31;97923.50;;;27.74
64904;BMP280;51401;48.882;12.598;2023-08-12T08:55:02;97912.09;;;27.47
64904;BMP280;51401;48.882;12.598;2023-08-12T08:57:28;97892.97;;;27.27
64904;BMP280;51401;48.882;12.598;2023-08-12T08:59:53;97884.91;;;27.97
64904;BMP280;51401;48.882;12.598;2023-08-12T09:02:19;97913.84;;;28.43
64904;BMP280;51401;48.882;12.598;2023-08-12T09:04:46;97917.78;;;28.82
64904;BMP280;51401;48.882;12.598;2023-08-12T09:07:13;97908.72;;;29.30
64904;BMP280;51401;48.882;12.598;2023-08-12T09:09:44;97923.63;;;28.81
64904;BMP280;51401;48.882;12.598;2023-08-12T09:12:14;97930.72;;;29.12
64904;BMP280;51401;48.882;12.598;2023-08-12T09:14:43;97891.88;;;28.21
64904;BMP280;51401;48.882;12.598;2023-08-12T09:17:09;97919.63;;;27.43
64904;BMP280;51401;48.882;12.598;2023-08-12T09:19:34;97906.53;;;27.29
64904;BMP280;51401;48.882;12.598;2023-08-12T09:22:03;97915.25;;;27.35
64904;BMP280;51401;48.882;12.598;2023-08-12T09:24:28;97897.56;;;27.80
64904;BMP280;51401;48.882;12.598;2023-08-12T09:26:55;97911.13;;;28.59
64904;BMP280;51401;48.882;12.598;2023-08-12T09:29:26;97912.63;;;28.89
64904;BMP280;51401;48.882;12.598;2023-08-12T09:32:05;97941.69;;;28.58
64904;BMP280;51401;48.882;12.598;2023-08-12T09:34:30;97926.25;;;28.41
64904;BMP280;51401;48.882;12.598;2023-08-12T09:36:56;97937.94;;;28.27
64904;BMP280;51401;48.882;12.598;2023-08-12T09:39:21;97933.25;;;28.49
64904;BMP280;51401;48.882;12.598;2023-08-12T09:41:46;97949.75;;;28.98
64904;BMP280;51401;48.882;12.598;2023-08-12T09:44:23;97949.38;;;29.18
64904;BMP280;51401;48.882;12.598;2023-08-12T09:46:56;97947.00;;;29.96
64904;BMP280;51401;48.882;12.598;2023-08-12T09:49:22;97942.59;;;29.46
64904;BMP280;51401;48.882;12.598;2023-08-12T09:51:47;97933.78;;;29.79
64904;BMP280;51401;48.882;12.598;2023-08-12T09:54:13;97947.22;;;29.45
64904;BMP280;51401;48.882;12.598;2023-08-12T09:56:40;97942.38;;;28.64
64904;BMP280;51401;48.882;12.598;2023-08-12T09:59:06;97934.06;;;28.79
64904;BMP280;51401;48.882;12.598;2023-08-12T10:01:34;97937.25;;;28.77
64904;BMP280;51401;48.882;12.598;2023-08-12T10:04:00;97946.41;;;29.27
64904;BMP280;51401;48.882;12.598;2023-08-12T10:06:27;97943.81;;;29.97
64904;BMP280;51401;48.882;12.598;2023-08-12T10:08:53;97951.38;;;30.58
64904;BMP280;51401;48.882;12.598;2023-08-12T10:11:18;97958.28;;;30.30
64904;BMP280;51401;48.882;12.598;2023-08-12T10:13:44;97965.28;;;30.39
64904;BMP280;51401;48.882;12.598;2023-08-12T10:16:10;97967.06;;;30.31
64904;BMP280;51401;48.882;12.598;2023-08-12T10:18:39;97947.06;;;30.32
64904;BMP280;51401;48.882;12.598;2023-08-12T10:21:05;97951.16;;;30.74
64904;BMP280;51401;48.882;12.598;2023-08-12T10:23:33;97958.34;;;31.46
64904;BMP280;51401;48.882;12.598;2023-08-12T10:25:59;97971.56;;;32.33
64904;BMP280;51401;48.882;12.598;2023-08-12T10:28:29;97974.69;;;32.25
64904;BMP280;51401;48.882;12.598;2023-08-12T10:31:02;97988.19;;;31.68
64904;BMP280;51401;48.882;12.598;2023-08-12T10:33:27;97969.84;;;30.80
64904;BMP280;51401;48.882;12.598;2023-08-12T10:35:55;97965.44;;;31.13
64904;BMP280;51401;48.882;12.598;2023-08-12T10:38:21;97963.75;;;31.97
64904;BMP280;51401;48.882;12.598;2023-08-12T10:40:47;97973.94;;;31.48
64904;BMP280;51401;48.882;12.598;2023-08-12T10:43:14;97979.78;;;31.59
64904;BMP280;51401;48.882;12.598;2023-08-12T10:45:52;97964.06;;;30.76
64904;BMP280;51401;48.882;12.598;2023-08-12T10:48:25;97965.19;;;30.21
64904;BMP280;51401;48.882;12.598;2023-08-12T10:50:54;97962.91;;;31.02
64904;BMP280;51401;48.882;12.598;2023-08-12T10:53:28;97973.94;;;31.48
64904;BMP280;51401;48.882;12.598;2023-08-12T10:55:58;97956.69;;;31.43
64904;BMP280;51401;48.882;12.598;2023-08-12T10:58:41;97948.75;;;31.51
64904;BMP280;51401;48.882;12.598;2023-08-12T11:01:11;97958.78;;;31.19
64904;BMP280;51401;48.882;12.598;2023-08-12T11:03:38;97962.25;;;31.33
64904;BMP280;51401;48.882;12.598;2023-08-12T11:06:12;97949.84;;;30.45
64904;BMP280;51401;48.882;12.598;2023-08-12T11:08:46;97936.06;;;30.17
64904;BMP280;51401;48.882;12.598;2023-08-12T11:11:22;97945.06;;;29.44
64904;BMP280;51401;48.882;12.598;2023-08-12T11:13:56;97938.97;;;29.14
64904;BMP280;51401;48.882;12.598;2023-08-12T11:16:37;97931.19;;;29.16
64904;BMP280;51401;48.882;12.598;2023-08-12T11:19:04;97931.47;;;29.42
64904;BMP280;51401;48.882;12.598;2023-08-12T11:21:30;97931.84;;;30.03
64904;BMP280;51401;48.882;12.598;2023-08-12T11:23:55;97935.31;;;29.99
64904;BMP280;51401;48.882;12.598;2023-08-12T11:26:24;97924.59;;;29.99
64904;BMP280;51401;48.882;12.598;2023-08-12T11:28:49;97921.03;;;30.14
64904;BMP280;51401;48.882;12.598;2023-08-12T11:31:15;97917.69;;;30.08
64904;BMP280;51401;48.882;12.598;2023-08-12T11:33:41;97919.88;;;30.28
64904;BMP280;51401;48.882;12.598;2023-08-12T11:36:07;97920.91;;;30.25
64904;BMP280;51401;48.882;12.598;2023-08-12T11:38:32;97916.53;;;30.22
64904;BMP280;51401;48.882;12.598;2023-08-12T11:41:00;97921.34;;;30.05
64904;BMP280;51401;48.882;12.598;2023-08-12T11:43:27;97926.88;;;30.54
64904;BMP280;51401;48.882;12.598;2023-08-12T11:45:55;97919.44;;;30.96
64904;BMP280;51401;48.882;12.598;2023-08-12T11:48:21;97919.16;;;30.46
64904;BMP280;51401;48.882;12.598;2023-08-12T11:50:46;97912.63;;;30.77
64904;BMP280;51401;48.882;12.598;2023-08-12T11:53:11;97912.50;;;30.52
64904;BMP280;51401;48.882;12.598;2023-08-12T11:55:37;97900.75;;;30.19
64904;BMP280;51401;48.882;12.598;2023-08-12T11:58:02;97903.63;;;30.02
64904;BMP280;51401;48.882;12.598;2023-08-12T12:00:28;97905.31;;;29.82
64904;BMP280;51401;48.882;12.598;2023-08-12T12:02:55;97902.94;;;29.55
64904;BMP280;51401;48.882;12.598;2023-08-12T12:05:29;97905.03;;;29.85
64904;BMP280;51401;48.882;12.598;2023-08-12T12:08:00;97902.53;;;30.71
64904;BMP280;51401;48.882;12.598;2023-08-12T12:10:31;97909.16;;;31.13
64904;BMP280;51401;48.882;12.598;2023-08-12T12:12:57;97906.34;;;32.00
64904;BMP280;51401;48.882;12.598;2023-08-12T12:15:23;97925.31;;;32.15
64904;BMP280;51401;48.882;12.598;2023-08-12T12:17:49;97914.50;;;33.06
64904;BMP280;51401;48.882;12.598;2023-08-12T12:20:15;97904.78;;;33.03
64904;BMP280;51401;48.882;12.598;2023-08-12T12:22:42;97915.72;;;32.52
64904;BMP280;51401;48.882;12.598;2023-08-12T12:25:15;97909.97;;;33.01
64904;BMP280;51401;48.882;12.598;2023-08-12T12:27:42;97913.78;;;33.33
64904;BMP280;51401;48.882;12.598;2023-08-12T12:30:10;97916.88;;;33.17
64904;BMP280;51401;48.882;12.598;2023-08-12T12:32:36;97914.13;;;33.29
64904;BMP280;51401;48.882;12.598;2023-08-12T12:35:03;97924.41;;;33.38
64904;BMP280;51401;48.882;12.598;2023-08-12T12:37:29;97910.84;;;32.96
64904;BMP280;51401;48.882;12.598;2023-08-12T12:39:54;97919.22;;;33.40
64904;BMP280;51401;48.882;12.598;2023-08-12T12:42:20;97909.19;;;32.93
64904;BMP280;51401;48.882;12.598;2023-08-12T12:44:45;97913.84;;;32.93
64904;BMP280;51401;48.882;12.598;2023-08-12T12:47:10;97911.13;;;33.40
64904;BMP280;51401;48.882;12.598;2023-08-12T12:49:38;97913.34;;;33.22
64904;BMP280;51401;48.882;12.598;2023-08-12T12:52:03;97910.91;;;33.58
64904;BMP280;51401;48.882;12.598;2023-08-12T12:54:29;97906.97;;;33.94
64904;BMP280;51401;48.882;12.598;2023-08-12T12:56:56;97903.00;;;33.05
64904;BMP280;51401;48.882;12.598;2023-08-12T12:59:21;97898.25;;;33.19
64904;BMP280;51401;48.882;12.598;2023-08-12T13:01:46;97895.91;;;33.35
64904;BMP280;51401;48.882;12.598;2023-08-12T13:04:12;97895.13;;;33.27
64904;BMP280;51401;48.882;12.598;2023-08-12T13:06:37;97896.09;;;33.17
64904;BMP280;51401;48.882;12.598;2023-08-12T13:09:03;97881.81;;;33.84
64904;BMP280;51401;48.882;12.598;2023-08-12T13:11:31;97897.91;;;33.42
64904;BMP280;51401;48.882;12.598;2023-08-12T13:13:57;97899.50;;;33.72
64904;BMP280;51401;48.882;12.598;2023-08-12T13:16:22;97887.69;;;34.32
64904;BMP280;51401;48.882;12.598;2023-08-12T13:18:47;97886.19;;;34.02
64904;BMP280;51401;48.882;12.598;2023-08-12T13:21:12;97881.84;;;33.99
64904;BMP280;51401;48.882;12.598;2023-08-12T13:23:38;97886.22;;;34.09
64904;BMP280;51401;48.882;12.598;2023-08-12T13:26:03;97886.47;;;34.48
64904;BMP280;51401;48.882;12.598;2023-08-12T13:28:29;97886.69;;;34.42
64904;BMP280;51401;48.882;12.598;2023-08-12T13:30:55;97878.47;;;34.06
64904;BMP280;51401;48.882;12.598;2023-08-12T13:33:20;97882.88;;;34.31
64904;BMP280;51401;48.882;12.598;2023-08-12T13:35:46;97877.94;;;34.00
64904;BMP280;51401;48.882;12.598;2023-08-12T13:38:11;97874.03;;;34.16
64904;BMP280;51401;48.882;12.598;2023-08-12T13:40:37;97872.84;;;34.90
64904;BMP280;51401;48.882;12.598;2023-08-12T13:43:02;97870.88;;;34.83
64904;BMP280;51401;48.882;12.598;2023-08-12T13:45:27;97873.56;;;34.83
64904;BMP280;51401;48.882;12.598;2023-08-12T13:47:53;97870.50;;;34.79
64904;BMP280;51401;48.882;12.598;2023-08-12T13:50:19;97869.44;;;34.89